Weather History for Fairhope, AL

Change the Weather History Date:

Saturday, March 2, 2013

  Actual Average (KBFM) Record (KBFM)
Temperature  
Mean Temperature 42 °F -  
Max Temperature 50 °F 64 °F 78 °F (2006)
Min Temperature 35 °F 46 °F 33 °F (2009)
Degree Days  
Heating Degree Days 22    
Moisture  
Dew Point 28 °F    
Average Humidity 59    
Maximum Humidity 81    
Minimum Humidity 43    
Precipitation  
Precipitation 0.00 in - - ()
Sea Level Pressure  
Sea Level Pressure 30.16 in    
Wind  
Wind Speed 9 mph (NNW)    
Max Wind Speed 16 mph    
Max Gust Speed 24 mph    
Visibility 9 miles    
Events      
Averages and records for this station are not official NWS values.
T = Trace of Precipitation, MM = Missing Value Source: NWS Daily Summary

Daily Weather History Graph

Daily Weather History Graph

Search for Another Location

Airport:

Trip Planner

Search our weather history database for the weather conditions in past years. The results will help you decide how hot, cold, wet, or windy it might be!

Date:

Astronomy

Mar. 02, 2013 Rise Set
Actual Time 6:16 AM CST 5:51 PM CST
Civil Twilight 5:52 AM CST 6:15 PM CST
Nautical Twilight 5:24 AM CST 6:43 PM CST
Astronomical Twilight 4:56 AM CST 7:11 PM CST
Moon 11:03 PM CST (3/2) 9:08 AM CST (3/2)
Length of Visible Light 12h 23m
Length of Day
11h 34m
Waning Gibbous, 74% of the Moon is Illuminated
Mar 2
Waning Gibbous
Mar 4
Last Quarter
Mar 11
New
Mar 19
First Quarter
Mar 27
Full

Hourly Weather History & Observations

Time (CST) Temp. Windchill Dew Point Humidity Pressure Visibility Wind Dir Wind Speed Gust Speed Precip Events Conditions
12:15 AM 42.8 °F 38.6 °F 32.0 °F 66% 30.15 in 10.0 mi NNW 6.9 mph - N/A   Clear
12:35 AM 41.0 °F 35.8 °F 32.0 °F 70% 30.16 in 10.0 mi NNW 8.1 mph - N/A   Clear
1:15 AM 41.0 °F 36.4 °F 30.2 °F 65% 30.16 in 10.0 mi NW 6.9 mph - N/A   Clear
1:35 AM 41.0 °F 34.3 °F 28.4 °F 61% 30.15 in 10.0 mi NW 11.5 mph - N/A   Clear
1:55 AM 41.0 °F 36.4 °F 28.4 °F 61% 30.14 in 10.0 mi NW 6.9 mph - N/A   Clear
2:15 AM 41.0 °F 35.8 °F 28.4 °F 61% 30.14 in 10.0 mi NW 8.1 mph - N/A   Clear
2:35 AM 41.0 °F 35.8 °F 28.4 °F 61% 30.13 in 10.0 mi NW 8.1 mph - N/A   Clear
2:55 AM 39.2 °F 35.0 °F 28.4 °F 65% 30.13 in 10.0 mi NW 5.8 mph - N/A   Clear
3:15 AM 39.2 °F 34.2 °F 30.2 °F 70% 30.13 in 7.0 mi NW 6.9 mph - N/A   Clear
3:35 AM 37.4 °F 33.8 °F 30.2 °F 75% 30.13 in 7.0 mi NW 4.6 mph - N/A   Clear
3:55 AM 37.4 °F 32.8 °F 30.2 °F 75% 30.13 in 7.0 mi NW 5.8 mph - N/A   Clear
4:15 AM 37.4 °F 32.8 °F 30.2 °F 75% 30.12 in 10.0 mi NNW 5.8 mph - N/A   Clear
4:35 AM 37.4 °F 32.1 °F 30.2 °F 75% 30.13 in 7.0 mi NNW 6.9 mph - N/A   Clear
5:15 AM 37.4 °F 32.8 °F 30.2 °F 75% 30.13 in 10.0 mi NNW 5.8 mph - N/A   Clear
5:35 AM 37.4 °F 33.8 °F 30.2 °F 75% 30.14 in 7.0 mi NNW 4.6 mph - N/A   Clear
6:15 AM 37.4 °F - 28.4 °F 70% 30.16 in 7.0 mi Calm Calm - N/A   Clear
6:35 AM 37.4 °F 34.9 °F 30.2 °F 75% 30.16 in 7.0 mi North 3.5 mph - N/A   Clear
6:55 AM 35.6 °F 32.8 °F 30.2 °F 81% 30.17 in 5.0 mi North 3.5 mph - N/A   Haze
7:15 AM 37.4 °F - 30.2 °F 75% 30.18 in 7.0 mi Calm Calm - N/A   Clear
7:35 AM 41.0 °F 37.1 °F 30.2 °F 65% 30.19 in 7.0 mi NNW 5.8 mph 21.9 mph N/A   Clear
7:55 AM 41.0 °F 35.8 °F 30.2 °F 65% 30.19 in 7.0 mi North 8.1 mph - N/A   Clear
8:15 AM 42.8 °F 38.0 °F 32.0 °F 66% 30.20 in 7.0 mi North 8.1 mph - N/A   Clear
8:35 AM 42.8 °F 37.5 °F 30.2 °F 61% 30.20 in 7.0 mi NNW 9.2 mph - N/A   Clear
8:55 AM 42.8 °F 37.5 °F 30.2 °F 61% 30.20 in 7.0 mi NNW 9.2 mph 16.1 mph N/A   Scattered Clouds
9:15 AM 44.6 °F 40.2 °F 30.2 °F 57% 30.19 in 7.0 mi NNW 8.1 mph 18.4 mph N/A   Clear
9:35 AM 42.8 °F 37.0 °F 28.4 °F 57% 30.19 in 7.0 mi NW 10.4 mph 16.1 mph N/A   Clear
10:15 AM 44.6 °F 39.2 °F 28.4 °F 53% 30.19 in 10.0 mi NW 10.4 mph 20.7 mph N/A   Clear
10:35 AM 46.4 °F 41.5 °F 30.2 °F 53% 30.18 in 7.0 mi NW 10.4 mph 18.4 mph N/A   Clear
10:55 AM 46.4 °F 41.1 °F 28.4 °F 50% 30.17 in 7.0 mi WNW 11.5 mph 17.3 mph N/A   Clear
11:35 AM 46.4 °F 41.9 °F 28.4 °F 50% 30.16 in 7.0 mi NW 9.2 mph 17.3 mph N/A   Clear
11:55 AM 48.2 °F - 30.2 °F 50% 30.15 in 7.0 mi NW 13.8 mph 19.6 mph N/A   Scattered Clouds
12:15 PM 50.0 °F - 30.2 °F 47% 30.14 in 10.0 mi NNW 15.0 mph 24.2 mph N/A   Scattered Clouds
12:35 PM 48.2 °F - 28.4 °F 46% 30.13 in 7.0 mi NW 13.8 mph 21.9 mph N/A   Mostly Cloudy
1:15 PM 50.0 °F - 28.4 °F 43% 30.11 in 10.0 mi NNW 16.1 mph 21.9 mph N/A   Overcast
1:35 PM 48.2 °F - 28.4 °F 46% 30.11 in 7.0 mi WNW 12.7 mph 19.6 mph N/A   Overcast
1:55 PM 46.4 °F 41.5 °F 28.4 °F 50% 30.11 in 7.0 mi NW 10.4 mph 19.6 mph N/A   Overcast
2:15 PM 46.4 °F 40.4 °F 28.4 °F 50% 30.11 in 10.0 mi NW 13.8 mph 20.7 mph N/A   Overcast
2:35 PM 46.4 °F 40.7 °F 26.6 °F 46% 30.11 in 10.0 mi NW 12.7 mph 17.3 mph N/A   Overcast
2:55 PM 46.4 °F 40.4 °F 28.4 °F 50% 30.10 in 10.0 mi NW 13.8 mph 23.0 mph N/A   Overcast
3:15 PM 46.4 °F 41.9 °F 28.4 °F 50% 30.10 in 10.0 mi NW 9.2 mph 16.1 mph N/A   Overcast
3:35 PM 46.4 °F 40.7 °F 26.6 °F 46% 30.10 in 10.0 mi NW 12.7 mph 21.9 mph N/A   Overcast
4:15 PM 44.6 °F 37.8 °F 26.6 °F 49% 30.11 in 10.0 mi NW 15.0 mph 18.4 mph N/A   Overcast
4:35 PM 44.6 °F 39.2 °F 26.6 °F 49% 30.12 in 10.0 mi NW 10.4 mph 18.4 mph N/A   Overcast
4:55 PM 44.6 °F 38.4 °F 26.6 °F 49% 30.13 in 10.0 mi NW 12.7 mph 18.4 mph N/A   Overcast
5:15 PM 42.8 °F 36.2 °F 26.6 °F 53% 30.13 in 7.0 mi NNW 12.7 mph - N/A   Overcast
5:35 PM 42.8 °F 37.0 °F 26.6 °F 53% 30.14 in 10.0 mi NNW 10.4 mph 18.4 mph N/A   Overcast
6:15 PM 42.8 °F 37.5 °F 26.6 °F 53% 30.15 in 10.0 mi NNW 9.2 mph 19.6 mph N/A   Overcast
6:35 PM 42.8 °F 37.0 °F 26.6 °F 53% 30.16 in 10.0 mi NNW 10.4 mph - N/A   Overcast
6:55 PM 42.8 °F 36.2 °F 26.6 °F 53% 30.16 in 10.0 mi NNW 12.7 mph 17.3 mph N/A   Overcast
7:15 PM 42.8 °F 37.0 °F 26.6 °F 53% 30.18 in 10.0 mi NNW 10.4 mph 17.3 mph N/A   Overcast
7:35 PM 42.8 °F 37.0 °F 26.6 °F 53% 30.18 in 10.0 mi NNW 10.4 mph 17.3 mph N/A   Overcast
7:55 PM 41.0 °F 33.9 °F 26.6 °F 57% 30.18 in 10.0 mi NNW 12.7 mph 17.3 mph N/A   Overcast
8:15 PM 41.0 °F 33.9 °F 26.6 °F 57% 30.19 in 10.0 mi North 12.7 mph 20.7 mph N/A   Overcast
8:35 PM 41.0 °F 33.5 °F 26.6 °F 57% 30.19 in 10.0 mi NNW 13.8 mph 17.3 mph N/A   Overcast
8:55 PM 41.0 °F 33.5 °F 26.6 °F 57% 30.20 in 10.0 mi NNW 13.8 mph 21.9 mph N/A   Overcast
9:15 PM 41.0 °F 36.4 °F 28.4 °F 61% 30.20 in 10.0 mi NNW 6.9 mph - N/A   Overcast
9:35 PM 41.0 °F 34.7 °F 28.4 °F 61% 30.21 in 10.0 mi NNW 10.4 mph - N/A   Overcast
9:55 PM 41.0 °F 34.7 °F 28.4 °F 61% 30.21 in 10.0 mi NNW 10.4 mph 18.4 mph N/A   Overcast
10:15 PM 41.0 °F 35.8 °F 26.6 °F 57% 30.21 in 10.0 mi NNW 8.1 mph - N/A   Overcast
10:35 PM 41.0 °F 34.3 °F 26.6 °F 57% 30.21 in 10.0 mi NW 11.5 mph 17.3 mph N/A   Overcast
10:55 PM 41.0 °F 34.7 °F 28.4 °F 61% 30.21 in 10.0 mi NNW 10.4 mph 17.3 mph N/A   Overcast
11:15 PM 41.0 °F 34.7 °F 26.6 °F 57% 30.21 in 10.0 mi NNW 10.4 mph 18.4 mph N/A   Overcast
11:35 PM 39.2 °F 33.6 °F 24.8 °F 56% 30.20 in 10.0 mi NNW 8.1 mph - N/A   Overcast
11:55 PM 39.2 °F 32.5 °F 23.0 °F 52% 30.20 in 10.0 mi NW 10.4 mph 19.6 mph N/A   Overcast